Time;durP1;ratioP1;P1;durP2;ratioP2;P2;SDS_P1;SDS_P2;PMS_P1;PMS_P2;Temp;Humidity;BMP_temperature;BMP_pressure;BME280_temperature;BME280_humidity;BME280_pressure;Samples;Min_cycle;Max_cycle;Signal;HPM_P1;HPM_P2
2023/12/18 00:01:11;;;;;;;34.53;18.73;;;;;;;;;;5034485;28;25055;-73
2023/12/18 00:03:37;;;;;;;35.40;18.85;;;;;;;;;;5029732;28;25088;-73
2023/12/18 00:06:03;;;;;;;30.17;18.85;;;;;;;;;;5031684;28;25055;-72
2023/12/18 00:08:29;;;;;;;29.35;19.13;;;;;;;;;;5029994;28;25058;-73
2023/12/18 00:10:55;;;;;;;28.08;19.40;;;;;;;;;;5033768;28;25059;-72
2023/12/18 00:13:21;;;;;;;36.00;19.80;;;;;;;;;;5028759;28;25067;-71
2023/12/18 00:15:47;;;;;;;37.90;20.27;;;;;;;;;;5030367;28;25046;-72
2023/12/18 00:18:13;;;;;;;36.95;19.55;;;;;;;;;;5032841;28;25100;-72
2023/12/18 00:20:39;;;;;;;40.75;20.50;;;;;;;;;;5031013;28;25077;-73
2023/12/18 00:23:05;;;;;;;31.63;19.48;;;;;;;;;;5033030;28;25532;-71
2023/12/18 00:25:31;;;;;;;33.70;18.92;;;;;;;;;;5032450;28;25063;-71
2023/12/18 00:27:57;;;;;;;36.88;19.20;;;;;;;;;;5033119;28;25137;-71
2023/12/18 00:30:23;;;;;;;34.55;20.42;;;;;;;;;;5031540;28;25059;-71
2023/12/18 00:32:49;;;;;;;36.85;20.15;;;;;;;;;;5030758;28;25062;-71
2023/12/18 00:35:15;;;;;;;39.88;21.50;;;;;;;;;;5027454;28;25089;-72
2023/12/18 00:37:41;;;;;;;38.47;18.40;;;;;;;;;;5031905;28;25033;-72
2023/12/18 00:40:09;;;;;;;30.02;19.02;;;;;;;;;;5032767;28;25146;-71
2023/12/18 00:42:35;;;;;;;35.63;18.73;;;;;;;;;;5029466;28;25053;-71
2023/12/18 00:45:01;;;;;;;38.92;20.05;;;;;;;;;;5030809;28;25074;-71
2023/12/18 00:47:28;;;;;;;38.92;18.33;;;;;;;;;;5029923;28;25060;-73
2023/12/18 00:49:54;;;;;;;39.60;20.65;;;;;;;;;;5023751;28;25058;-72
2023/12/18 00:52:20;;;;;;;31.83;19.25;;;;;;;;;;5032769;28;25058;-72
2023/12/18 00:54:46;;;;;;;31.60;18.90;;;;;;;;;;5025013;28;25083;-73
2023/12/18 00:57:12;;;;;;;29.70;19.35;;;;;;;;;;5029379;28;25064;-71
2023/12/18 00:59:38;;;;;;;31.17;18.02;;;;;;;;;;5029855;28;25141;-71
2023/12/18 01:02:04;;;;;;;36.83;19.75;;;;;;;;;;5032294;28;25061;-71
2023/12/18 01:04:30;;;;;;;38.13;19.85;;;;;;;;;;5027730;28;25096;-72
2023/12/18 01:06:56;;;;;;;30.25;20.20;;;;;;;;;;5029560;28;25126;-73
2023/12/18 01:09:22;;;;;;;36.75;20.48;;;;;;;;;;5031787;28;25130;-72
2023/12/18 01:11:49;;;;;;;35.22;18.45;;;;;;;;;;5030261;28;25066;-71
2023/12/18 01:14:15;;;;;;;35.10;19.27;;;;;;;;;;5031625;28;25069;-71
2023/12/18 01:16:41;;;;;;;32.45;19.65;;;;;;;;;;5031718;28;25071;-71
2023/12/18 01:19:07;;;;;;;35.88;20.33;;;;;;;;;;5022321;28;25065;-76
2023/12/18 01:21:33;;;;;;;34.38;20.50;;;;;;;;;;5032054;28;25048;-72
2023/12/18 01:23:59;;;;;;;40.10;20.60;;;;;;;;;;5032427;28;25093;-72
2023/12/18 01:26:25;;;;;;;32.50;19.95;;;;;;;;;;5029512;28;25127;-71
2023/12/18 01:28:51;;;;;;;30.55;19.30;;;;;;;;;;5029936;28;25178;-73
2023/12/18 01:31:21;;;;;;;30.83;19.05;;;;;;;;;;5031456;28;25145;-71
2023/12/18 01:33:47;;;;;;;28.63;18.13;;;;;;;;;;5031519;28;25059;-71
2023/12/18 01:36:13;;;;;;;39.20;21.48;;;;;;;;;;5031917;28;25153;-71
2023/12/18 01:38:39;;;;;;;36.53;19.48;;;;;;;;;;5027236;28;25056;-73
2023/12/18 01:41:05;;;;;;;36.58;20.50;;;;;;;;;;5032935;28;25094;-73
2023/12/18 01:43:31;;;;;;;33.97;21.27;;;;;;;;;;5042491;28;25063;-70
2023/12/18 01:45:58;;;;;;;37.20;19.77;;;;;;;;;;5027571;28;25064;-72
2023/12/18 01:48:25;;;;;;;36.97;20.50;;;;;;;;;;5024389;28;25055;-69
2023/12/18 01:50:53;;;;;;;36.08;20.23;;;;;;;;;;5026112;28;25072;-72
2023/12/18 01:53:19;;;;;;;30.85;20.73;;;;;;;;;;5031569;28;25077;-71
2023/12/18 01:55:45;;;;;;;35.85;20.08;;;;;;;;;;5030146;28;25142;-72
2023/12/18 01:58:12;;;;;;;29.08;19.92;;;;;;;;;;5030951;28;25061;-71
2023/12/18 02:00:38;;;;;;;37.97;19.58;;;;;;;;;;5025439;28;25132;-73
2023/12/18 02:03:05;;;;;;;40.70;19.98;;;;;;;;;;5031913;28;25069;-73
2023/12/18 02:05:31;;;;;;;34.88;20.23;;;;;;;;;;5028768;28;25087;-72
2023/12/18 02:07:57;;;;;;;33.17;19.30;;;;;;;;;;5030372;28;25051;-71
2023/12/18 02:10:24;;;;;;;27.67;19.45;;;;;;;;;;5024300;28;25021;-70
2023/12/18 02:12:50;;;;;;;31.35;19.30;;;;;;;;;;5028117;28;25076;-70
2023/12/18 02:15:16;;;;;;;28.48;18.80;;;;;;;;;;5026702;28;25100;-72
2023/12/18 02:17:42;;;;;;;37.00;20.63;;;;;;;;;;5021841;28;25074;-71
2023/12/18 02:20:08;;;;;;;37.13;20.48;;;;;;;;;;5025948;28;25126;-71
2023/12/18 02:22:46;;;;;;;36.78;20.33;;;;;;;;;;5026536;28;25064;-72
2023/12/18 02:25:12;;;;;;;33.25;19.00;;;;;;;;;;5030866;28;25072;-71
2023/12/18 02:27:39;;;;;;;35.58;19.73;;;;;;;;;;5034496;28;25155;-71
2023/12/18 02:30:05;;;;;;;36.38;20.27;;;;;;;;;;5027067;28;25148;-70
2023/12/18 02:32:31;;;;;;;31.30;18.67;;;;;;;;;;5029897;28;25119;-71
2023/12/18 02:34:57;;;;;;;35.00;19.15;;;;;;;;;;5032855;28;25145;-71
2023/12/18 02:37:24;;;;;;;34.28;19.88;;;;;;;;;;5025246;28;25073;-72
2023/12/18 02:39:50;;;;;;;30.73;19.15;;;;;;;;;;5026825;28;25056;-71
2023/12/18 02:42:16;;;;;;;31.10;19.33;;;;;;;;;;5032402;28;25055;-70
2023/12/18 02:44:42;;;;;;;36.90;18.77;;;;;;;;;;5029179;28;25183;-71
2023/12/18 02:47:08;;;;;;;33.97;19.20;;;;;;;;;;5029365;28;25137;-71
2023/12/18 02:49:34;;;;;;;28.45;18.20;;;;;;;;;;5029503;28;25054;-73
2023/12/18 02:52:01;;;;;;;36.33;18.75;;;;;;;;;;5032256;28;25104;-70
2023/12/18 02:54:27;;;;;;;30.08;19.45;;;;;;;;;;5026059;28;25067;-70
2023/12/18 02:56:53;;;;;;;33.88;19.38;;;;;;;;;;5030896;28;25091;-71
2023/12/18 02:59:19;;;;;;;34.83;19.95;;;;;;;;;;5028745;28;25065;-72
2023/12/18 03:01:45;;;;;;;37.22;19.05;;;;;;;;;;5028875;28;25076;-72
2023/12/18 03:04:11;;;;;;;35.63;19.70;;;;;;;;;;5029896;28;25067;-72
2023/12/18 03:06:37;;;;;;;39.97;19.98;;;;;;;;;;5035554;28;25053;-70
2023/12/18 03:09:03;;;;;;;29.23;17.95;;;;;;;;;;5033444;28;25077;-70
2023/12/18 03:11:29;;;;;;;26.80;18.90;;;;;;;;;;5027478;28;25091;-70
2023/12/18 03:13:55;;;;;;;32.72;19.60;;;;;;;;;;5036512;28;25052;-70
2023/12/18 03:16:21;;;;;;;33.13;19.75;;;;;;;;;;5032019;28;25065;-71
2023/12/18 03:18:47;;;;;;;37.65;19.83;;;;;;;;;;5035040;28;25068;-72
2023/12/18 03:21:13;;;;;;;32.05;19.73;;;;;;;;;;5034648;28;25073;-71
2023/12/18 03:23:41;;;;;;;35.58;21.38;;;;;;;;;;5036136;28;25066;-74
2023/12/18 03:26:07;;;;;;;45.35;22.67;;;;;;;;;;5033775;28;25062;-74
2023/12/18 03:28:33;;;;;;;34.33;21.15;;;;;;;;;;5031447;28;25065;-73
2023/12/18 03:30:59;;;;;;;36.25;21.20;;;;;;;;;;5046353;28;25100;-73
2023/12/18 03:33:25;;;;;;;35.03;22.02;;;;;;;;;;5032858;28;25059;-71
2023/12/18 03:35:51;;;;;;;41.17;20.13;;;;;;;;;;5032908;28;25119;-71
2023/12/18 03:38:17;;;;;;;33.88;22.55;;;;;;;;;;5035350;28;25082;-72
2023/12/18 03:40:43;;;;;;;39.95;22.50;;;;;;;;;;5035354;28;25087;-72
2023/12/18 03:43:09;;;;;;;34.17;21.48;;;;;;;;;;5034445;28;25101;-72
2023/12/18 03:45:35;;;;;;;37.20;22.83;;;;;;;;;;5030719;28;25104;-72
2023/12/18 03:48:01;;;;;;;40.55;22.75;;;;;;;;;;5035721;28;25053;-71
2023/12/18 03:50:27;;;;;;;33.97;21.75;;;;;;;;;;5036320;28;25053;-71
2023/12/18 03:52:53;;;;;;;37.83;22.02;;;;;;;;;;5034192;28;25103;-72
2023/12/18 03:55:19;;;;;;;36.42;22.88;;;;;;;;;;5045177;28;25078;-71
2023/12/18 03:57:45;;;;;;;34.40;22.20;;;;;;;;;;5037050;28;25081;-72
2023/12/18 04:00:11;;;;;;;39.10;22.15;;;;;;;;;;5033271;28;25138;-71
2023/12/18 04:02:37;;;;;;;42.53;24.83;;;;;;;;;;5046447;28;25071;-69
2023/12/18 04:05:03;;;;;;;35.05;23.33;;;;;;;;;;5045031;28;25076;-71
2023/12/18 04:07:29;;;;;;;38.40;23.48;;;;;;;;;;5036625;28;25068;-71
2023/12/18 04:09:55;;;;;;;39.80;24.10;;;;;;;;;;5033541;28;25062;-73
2023/12/18 04:12:21;;;;;;;35.75;23.35;;;;;;;;;;5037813;28;25089;-69
2023/12/18 04:14:47;;;;;;;43.13;23.83;;;;;;;;;;5039691;28;25088;-68
2023/12/18 04:17:13;;;;;;;32.30;24.33;;;;;;;;;;5044002;28;25059;-70
2023/12/18 04:19:39;;;;;;;46.20;24.67;;;;;;;;;;5041450;28;25091;-73
2023/12/18 04:22:05;;;;;;;38.00;24.15;;;;;;;;;;5041728;28;25078;-72
2023/12/18 04:24:31;;;;;;;38.80;22.85;;;;;;;;;;5032577;28;25050;-72
2023/12/18 04:26:57;;;;;;;38.08;23.13;;;;;;;;;;5033866;28;25065;-71
2023/12/18 04:29:23;;;;;;;42.00;22.52;;;;;;;;;;5035119;28;25169;-72
2023/12/18 04:31:52;;;;;;;36.83;23.63;;;;;;;;;;5032436;28;25115;-71
2023/12/18 04:34:18;;;;;;;36.90;24.25;;;;;;;;;;5033270;28;25135;-71
2023/12/18 04:36:44;;;;;;;40.28;22.05;;;;;;;;;;5030983;28;25075;-72
2023/12/18 04:39:11;;;;;;;44.63;25.60;;;;;;;;;;5031871;28;25063;-71
2023/12/18 04:41:37;;;;;;;37.42;24.33;;;;;;;;;;5035510;28;25069;-71
2023/12/18 04:44:05;;;;;;;42.70;24.42;;;;;;;;;;5031875;28;25057;-73
2023/12/18 04:46:35;;;;;;;40.08;23.88;;;;;;;;;;5033351;28;25087;-72
2023/12/18 04:49:01;;;;;;;33.75;23.40;;;;;;;;;;5034285;28;25059;-72
2023/12/18 04:51:27;;;;;;;38.13;24.80;;;;;;;;;;5033086;28;25055;-71
2023/12/18 04:53:53;;;;;;;39.40;24.95;;;;;;;;;;5032760;28;25070;-72
2023/12/18 04:56:19;;;;;;;42.97;25.58;;;;;;;;;;5030338;28;25094;-71
2023/12/18 04:58:45;;;;;;;38.50;24.13;;;;;;;;;;5031851;28;25069;-72
2023/12/18 05:01:11;;;;;;;41.40;24.23;;;;;;;;;;5031931;28;25062;-71
2023/12/18 05:03:37;;;;;;;37.75;24.50;;;;;;;;;;5033735;28;25128;-73
2023/12/18 05:06:03;;;;;;;42.30;24.10;;;;;;;;;;5031187;28;25041;-72
2023/12/18 05:08:29;;;;;;;36.90;23.48;;;;;;;;;;5034714;28;25137;-70
2023/12/18 05:10:55;;;;;;;35.10;23.55;;;;;;;;;;5036467;28;25071;-72
2023/12/18 05:13:21;;;;;;;38.75;23.23;;;;;;;;;;5029182;28;25067;-72
2023/12/18 05:15:48;;;;;;;46.63;25.00;;;;;;;;;;5033242;28;25067;-70
2023/12/18 05:18:14;;;;;;;39.95;22.98;;;;;;;;;;5030268;28;25052;-70
2023/12/18 05:20:40;;;;;;;40.13;23.33;;;;;;;;;;5031656;28;25165;-71
2023/12/18 05:23:05;;;;;;;45.20;23.92;;;;;;;;;;5033700;28;25054;-70
2023/12/18 05:25:31;;;;;;;33.80;23.45;;;;;;;;;;5031148;28;25072;-71
2023/12/18 05:27:57;;;;;;;37.67;24.38;;;;;;;;;;5031881;28;25134;-71
2023/12/18 05:30:23;;;;;;;33.42;22.65;;;;;;;;;;5029813;28;25055;-71
2023/12/18 05:32:49;;;;;;;34.05;22.08;;;;;;;;;;5042122;28;25087;-70
2023/12/18 05:35:15;;;;;;;34.50;22.50;;;;;;;;;;5033399;28;25060;-70
2023/12/18 05:37:42;;;;;;;31.50;23.35;;;;;;;;;;5033552;28;25063;-71
2023/12/18 05:40:08;;;;;;;37.40;21.77;;;;;;;;;;5031391;28;25063;-72
2023/12/18 05:42:34;;;;;;;36.65;23.35;;;;;;;;;;5028068;28;25064;-72
2023/12/18 05:45:00;;;;;;;38.00;23.95;;;;;;;;;;5029528;28;25065;-71
2023/12/18 05:47:26;;;;;;;39.10;23.77;;;;;;;;;;5032447;28;25069;-70
2023/12/18 05:49:52;;;;;;;45.63;23.85;;;;;;;;;;5031121;28;25056;-70
2023/12/18 05:52:18;;;;;;;38.40;22.45;;;;;;;;;;5034980;28;25143;-72
2023/12/18 05:54:44;;;;;;;32.55;21.45;;;;;;;;;;5034880;28;25059;-72
2023/12/18 05:57:14;;;;;;;33.40;22.23;;;;;;;;;;5043490;28;25088;-71
2023/12/18 05:59:41;;;;;;;37.30;22.10;;;;;;;;;;5044846;28;25070;-71
2023/12/18 06:02:07;;;;;;;37.08;21.80;;;;;;;;;;5050255;28;25057;-71
2023/12/18 06:04:33;;;;;;;38.53;22.88;;;;;;;;;;5049132;28;25073;-69
2023/12/18 06:06:59;;;;;;;34.55;21.00;;;;;;;;;;5043775;28;25105;-71
2023/12/18 06:09:24;;;;;;;31.00;22.05;;;;;;;;;;5044308;28;25077;-69
2023/12/18 06:11:50;;;;;;;37.75;23.15;;;;;;;;;;5045220;28;25076;-71
2023/12/18 06:14:16;;;;;;;38.22;20.80;;;;;;;;;;5039213;28;25055;-71
2023/12/18 06:16:42;;;;;;;49.00;22.20;;;;;;;;;;5035881;28;25127;-71
2023/12/18 06:19:08;;;;;;;39.63;20.42;;;;;;;;;;5036058;28;25102;-72
2023/12/18 06:21:38;;;;;;;40.00;19.98;;;;;;;;;;5034100;28;25061;-71
2023/12/18 06:24:04;;;;;;;37.00;21.85;;;;;;;;;;5034128;28;25048;-71
2023/12/18 06:26:29;;;;;;;39.33;22.48;;;;;;;;;;5038829;28;25098;-71
2023/12/18 06:28:55;;;;;;;34.13;20.95;;;;;;;;;;5037128;28;25068;-73
2023/12/18 06:31:21;;;;;;;33.72;20.17;;;;;;;;;;5037159;28;25163;-74
2023/12/18 06:33:48;;;;;;;37.53;20.63;;;;;;;;;;5038450;28;25063;-71
2023/12/18 06:36:20;;;;;;;30.42;20.73;;;;;;;;;;5028722;28;25156;-72
2023/12/18 06:38:46;;;;;;;32.75;20.80;;;;;;;;;;5035951;28;25075;-71
2023/12/18 06:41:12;;;;;;;40.55;21.67;;;;;;;;;;5034363;28;25130;-72
2023/12/18 06:43:39;;;;;;;44.05;24.45;;;;;;;;;;5037073;28;25085;-73
2023/12/18 06:46:06;;;;;;;46.72;21.45;;;;;;;;;;5038452;28;25054;-70
2023/12/18 06:48:32;;;;;;;36.25;19.95;;;;;;;;;;5034458;28;25082;-72
2023/12/18 06:50:58;;;;;;;41.95;21.08;;;;;;;;;;5033343;28;25077;-71
2023/12/18 06:53:24;;;;;;;29.08;19.73;;;;;;;;;;5030744;28;25080;-72
2023/12/18 06:55:50;;;;;;;44.00;21.02;;;;;;;;;;5024099;28;25058;-70
2023/12/18 06:58:16;;;;;;;36.80;22.02;;;;;;;;;;5026742;28;25055;-71
2023/12/18 07:00:43;;;;;;;28.58;19.13;;;;;;;;;;5023222;28;25045;-72
2023/12/18 07:03:09;;;;;;;38.13;18.95;;;;;;;;;;5022303;28;25095;-72
2023/12/18 07:05:35;;;;;;;29.15;18.35;;;;;;;;;;5025036;28;25067;-70
2023/12/18 07:08:01;;;;;;;31.45;19.35;;;;;;;;;;5029790;28;25085;-71
2023/12/18 07:10:27;;;;;;;37.10;17.67;;;;;;;;;;5024288;28;25076;-70
2023/12/18 07:12:53;;;;;;;35.22;18.88;;;;;;;;;;5029433;28;25084;-72
2023/12/18 07:15:20;;;;;;;40.13;19.50;;;;;;;;;;5027107;28;25083;-72
2023/12/18 07:17:47;;;;;;;38.65;19.20;;;;;;;;;;5030493;28;25068;-71
2023/12/18 07:20:13;;;;;;;32.20;17.33;;;;;;;;;;5029850;28;25071;-70
2023/12/18 07:22:40;;;;;;;33.63;20.50;;;;;;;;;;5024438;28;25122;-71
2023/12/18 07:25:09;;;;;;;36.53;20.42;;;;;;;;;;5031494;28;25118;-70
2023/12/18 07:27:35;;;;;;;39.83;19.23;;;;;;;;;;5030668;28;25136;-72
2023/12/18 07:30:01;;;;;;;28.25;17.50;;;;;;;;;;5028282;28;25065;-72
2023/12/18 07:32:27;;;;;;;36.72;19.67;;;;;;;;;;5029747;28;25048;-71
2023/12/18 07:34:53;;;;;;;33.78;18.77;;;;;;;;;;5029756;28;25133;-72
2023/12/18 07:37:19;;;;;;;29.38;18.02;;;;;;;;;;5029422;28;25072;-72
2023/12/18 07:39:45;;;;;;;33.47;18.48;;;;;;;;;;5029607;28;25059;-73
2023/12/18 07:42:11;;;;;;;36.88;20.42;;;;;;;;;;5030592;28;25108;-72
2023/12/18 07:44:37;;;;;;;37.08;19.92;;;;;;;;;;5026392;28;25053;-71
2023/12/18 07:47:06;;;;;;;32.95;19.23;;;;;;;;;;5030417;28;25075;-70
2023/12/18 07:49:32;;;;;;;36.25;20.17;;;;;;;;;;5029389;28;25047;-71
2023/12/18 07:51:58;;;;;;;46.53;22.20;;;;;;;;;;5024589;28;25133;-69
2023/12/18 07:54:24;;;;;;;37.70;22.00;;;;;;;;;;5031184;28;25055;-73
2023/12/18 07:56:50;;;;;;;38.85;20.48;;;;;;;;;;5037283;28;25073;-72
2023/12/18 07:59:17;;;;;;;36.05;21.88;;;;;;;;;;5034756;28;25073;-72
2023/12/18 08:01:43;;;;;;;41.45;22.40;;;;;;;;;;5030144;28;25046;-71
2023/12/18 08:04:10;;;;;;;33.28;21.90;;;;;;;;;;5025258;28;25055;-74
2023/12/18 08:06:36;;;;;;;36.40;22.02;;;;;;;;;;5031127;28;25047;-72
2023/12/18 08:09:02;;;;;;;39.40;22.75;;;;;;;;;;5032483;28;25049;-71
2023/12/18 08:11:28;;;;;;;39.40;21.77;;;;;;;;;;5036266;28;25055;-73
2023/12/18 08:13:54;;;;;;;41.22;22.58;;;;;;;;;;5030753;28;25112;-71
2023/12/18 08:16:20;;;;;;;33.85;22.30;;;;;;;;;;5037266;28;25075;-72
2023/12/18 08:18:47;;;;;;;33.58;22.35;;;;;;;;;;5041053;28;25057;-71
2023/12/18 08:21:14;;;;;;;33.53;23.40;;;;;;;;;;5047045;28;25080;-73
2023/12/18 08:23:40;;;;;;;40.78;23.42;;;;;;;;;;5042354;28;25119;-71
2023/12/18 08:26:06;;;;;;;47.75;22.88;;;;;;;;;;5033110;28;25055;-71
2023/12/18 08:28:32;;;;;;;35.20;22.65;;;;;;;;;;5033110;28;25079;-73
2023/12/18 08:30:58;;;;;;;34.25;21.80;;;;;;;;;;5034821;28;25053;-72
2023/12/18 08:33:24;;;;;;;39.42;24.23;;;;;;;;;;5030599;28;25074;-72
2023/12/18 08:35:50;;;;;;;42.50;22.95;;;;;;;;;;5028368;28;25074;-69
2023/12/18 08:38:16;;;;;;;40.50;23.65;;;;;;;;;;5033056;28;25065;-71
2023/12/18 08:40:43;;;;;;;35.10;22.50;;;;;;;;;;5030420;28;25062;-72
2023/12/18 08:43:09;;;;;;;39.15;22.23;;;;;;;;;;5028303;28;25110;-71
2023/12/18 08:45:36;;;;;;;41.05;22.55;;;;;;;;;;5030538;28;25058;-71
2023/12/18 08:48:02;;;;;;;45.80;21.85;;;;;;;;;;5028507;28;25088;-70
2023/12/18 08:50:28;;;;;;;36.25;21.42;;;;;;;;;;5031331;28;25095;-70
2023/12/18 08:52:54;;;;;;;28.95;19.80;;;;;;;;;;5028994;28;25059;-70
2023/12/18 08:55:20;;;;;;;35.97;21.25;;;;;;;;;;5028336;28;25094;-70
2023/12/18 08:57:47;;;;;;;37.80;20.92;;;;;;;;;;5031894;28;25068;-70
2023/12/18 09:00:13;;;;;;;44.33;21.33;;;;;;;;;;5028124;28;25052;-68
2023/12/18 09:02:39;;;;;;;34.60;19.35;;;;;;;;;;5029070;28;25087;-70
2023/12/18 09:05:05;;;;;;;35.80;19.88;;;;;;;;;;5024584;28;25073;-70
2023/12/18 09:07:31;;;;;;;32.88;18.73;;;;;;;;;;5027768;28;25157;-71
2023/12/18 09:09:57;;;;;;;36.58;18.77;;;;;;;;;;5031093;28;25149;-71
2023/12/18 09:12:23;;;;;;;35.58;20.30;;;;;;;;;;5025969;28;25107;-72
2023/12/18 09:14:49;;;;;;;31.58;18.40;;;;;;;;;;5030324;28;25134;-70
2023/12/18 09:17:15;;;;;;;38.47;19.58;;;;;;;;;;5026412;28;25065;-71
2023/12/18 09:19:41;;;;;;;34.75;20.33;;;;;;;;;;5031000;28;25139;-70
2023/12/18 09:22:07;;;;;;;39.20;21.38;;;;;;;;;;5024212;28;25072;-70
2023/12/18 09:24:33;;;;;;;41.00;20.58;;;;;;;;;;5031964;28;25058;-71
2023/12/18 09:26:59;;;;;;;47.35;21.13;;;;;;;;;;5032821;28;25089;-71
2023/12/18 09:29:25;;;;;;;33.78;18.80;;;;;;;;;;5018466;28;25072;-72
2023/12/18 09:31:51;;;;;;;31.00;19.90;;;;;;;;;;5031587;28;25079;-71
2023/12/18 09:34:17;;;;;;;33.40;18.70;;;;;;;;;;5028147;28;25081;-71
2023/12/18 09:36:43;;;;;;;41.47;19.98;;;;;;;;;;5023075;28;25080;-71
2023/12/18 09:39:10;;;;;;;36.03;20.48;;;;;;;;;;5030988;28;25066;-69
2023/12/18 09:41:36;;;;;;;34.08;20.45;;;;;;;;;;5027752;28;25067;-69
2023/12/18 09:44:02;;;;;;;29.80;20.38;;;;;;;;;;5033758;28;25061;-71
2023/12/18 09:46:28;;;;;;;34.88;20.40;;;;;;;;;;5030948;28;25067;-70
2023/12/18 09:48:54;;;;;;;34.63;20.77;;;;;;;;;;5035740;28;25073;-70
2023/12/18 09:51:21;;;;;;;31.52;20.13;;;;;;;;;;5021122;28;25065;-71
2023/12/18 09:53:48;;;;;;;35.03;19.08;;;;;;;;;;5028441;28;25080;-70
2023/12/18 09:56:14;;;;;;;36.30;19.98;;;;;;;;;;5030518;28;25075;-71
2023/12/18 09:58:41;;;;;;;33.67;19.85;;;;;;;;;;5034564;28;25106;-70
2023/12/18 10:01:08;;;;;;;32.25;18.95;;;;;;;;;;5039637;28;25071;-70
2023/12/18 10:03:34;;;;;;;34.33;18.98;;;;;;;;;;5036145;28;25097;-71
2023/12/18 10:06:00;;;;;;;37.70;20.17;;;;;;;;;;5031124;28;25055;-70
2023/12/18 10:08:26;;;;;;;36.40;19.55;;;;;;;;;;5025612;28;25150;-72
2023/12/18 10:10:52;;;;;;;39.25;20.27;;;;;;;;;;5032124;28;25057;-70
2023/12/18 10:13:18;;;;;;;34.33;19.75;;;;;;;;;;5032004;28;25059;-72
2023/12/18 10:15:44;;;;;;;34.13;19.45;;;;;;;;;;5031159;28;25058;-71
2023/12/18 10:18:10;;;;;;;31.77;20.15;;;;;;;;;;5028338;28;25157;-71
2023/12/18 10:20:36;;;;;;;34.78;19.00;;;;;;;;;;5028836;28;25055;-71
2023/12/18 10:23:04;;;;;;;36.67;20.33;;;;;;;;;;5025334;28;25074;-72
2023/12/18 10:25:31;;;;;;;34.95;19.02;;;;;;;;;;5031027;28;25071;-69
2023/12/18 10:27:58;;;;;;;35.45;21.48;;;;;;;;;;5029972;28;25130;-71
2023/12/18 10:30:26;;;;;;;33.30;20.65;;;;;;;;;;5035035;28;25057;-71
2023/12/18 10:32:54;;;;;;;31.85;19.60;;;;;;;;;;5041320;28;25068;-71
2023/12/18 10:35:22;;;;;;;38.60;19.88;;;;;;;;;;5035552;28;25067;-72
2023/12/18 10:37:54;;;;;;;40.88;21.05;;;;;;;;;;5040613;28;25077;-71
2023/12/18 10:40:23;;;;;;;31.90;20.02;;;;;;;;;;5028078;28;25152;-71
2023/12/18 10:43:00;;;;;;;39.22;20.70;;;;;;;;;;5028193;28;25108;-69
2023/12/18 10:45:27;;;;;;;34.90;19.30;;;;;;;;;;5030097;28;25054;-71
2023/12/18 10:47:53;;;;;;;34.90;20.88;;;;;;;;;;5029625;28;25130;-71
2023/12/18 10:50:20;;;;;;;37.85;20.00;;;;;;;;;;5032633;28;25090;-71
2023/12/18 10:52:46;;;;;;;37.40;18.42;;;;;;;;;;5027181;28;25072;-70
2023/12/18 10:55:14;;;;;;;35.60;20.63;;;;;;;;;;5024907;28;25051;-71
2023/12/18 10:57:42;;;;;;;34.13;19.80;;;;;;;;;;5028775;28;25132;-70
2023/12/18 11:00:10;;;;;;;33.60;19.05;;;;;;;;;;5028792;28;25086;-71
2023/12/18 11:02:36;;;;;;;31.25;18.10;;;;;;;;;;5031093;28;25068;-72
2023/12/18 11:05:02;;;;;;;36.85;17.63;;;;;;;;;;5026806;28;25136;-70
2023/12/18 11:07:29;;;;;;;34.05;19.58;;;;;;;;;;5025216;28;25062;-71
2023/12/18 11:09:55;;;;;;;33.75;17.52;;;;;;;;;;5029265;28;25054;-71
2023/12/18 11:12:22;;;;;;;35.50;17.88;;;;;;;;;;5026288;28;25132;-69
2023/12/18 11:15:06;;;;;;;32.53;18.08;;;;;;;;;;5030482;28;25053;-71
2023/12/18 11:17:38;;;;;;;36.15;20.80;;;;;;;;;;5024499;28;25083;-70
2023/12/18 11:20:22;;;;;;;37.03;18.47;;;;;;;;;;5029118;28;25150;-70
2023/12/18 11:22:48;;;;;;;32.25;17.83;;;;;;;;;;5017059;28;25494;-73
2023/12/18 11:25:14;;;;;;;38.22;19.05;;;;;;;;;;5034203;28;25062;-72
2023/12/18 11:27:41;;;;;;;48.75;17.45;;;;;;;;;;5032139;28;25075;-70
2023/12/18 11:30:24;;;;;;;33.92;15.85;;;;;;;;;;5034702;28;25078;-72
2023/12/18 11:32:51;;;;;;;34.40;17.77;;;;;;;;;;5031071;28;25092;-72
2023/12/18 11:35:21;;;;;;;33.25;17.90;;;;;;;;;;5036622;28;25093;-70
2023/12/18 11:37:48;;;;;;;31.50;17.60;;;;;;;;;;5032878;28;25107;-72
2023/12/18 11:40:36;;;;;;;28.25;17.48;;;;;;;;;;5029991;28;25070;-70
2023/12/18 11:43:02;;;;;;;31.52;17.25;;;;;;;;;;5034339;28;25087;-71
2023/12/18 11:45:28;;;;;;;37.22;18.73;;;;;;;;;;5032761;28;25069;-71
2023/12/18 11:48:05;;;;;;;33.22;17.30;;;;;;;;;;5034864;28;25111;-70
2023/12/18 11:50:40;;;;;;;33.78;18.48;;;;;;;;;;5029244;28;25100;-70
2023/12/18 11:53:31;;;;;;;31.85;17.27;;;;;;;;;;5027419;28;25069;-71
2023/12/18 11:55:57;;;;;;;26.95;17.17;;;;;;;;;;5031026;28;25073;-70
2023/12/18 11:58:27;;;;;;;29.67;16.77;;;;;;;;;;5032998;28;25064;-70
2023/12/18 12:00:53;;;;;;;31.60;17.17;;;;;;;;;;5034322;28;25096;-70
2023/12/18 12:03:19;;;;;;;28.45;17.95;;;;;;;;;;5033526;28;25077;-72
2023/12/18 12:05:46;;;;;;;34.97;19.38;;;;;;;;;;5033140;28;25165;-70
2023/12/18 12:08:12;;;;;;;33.67;18.15;;;;;;;;;;5030605;28;25098;-70
2023/12/18 12:10:41;;;;;;;27.52;16.33;;;;;;;;;;5029546;28;25069;-70
2023/12/18 12:13:08;;;;;;;27.70;17.73;;;;;;;;;;5034572;28;25061;-71
2023/12/18 12:15:34;;;;;;;31.20;18.70;;;;;;;;;;5034341;28;25130;-70
2023/12/18 12:18:04;;;;;;;38.13;17.52;;;;;;;;;;5029945;28;25085;-70
2023/12/18 12:20:30;;;;;;;30.80;17.88;;;;;;;;;;5035978;28;25061;-70
2023/12/18 12:22:57;;;;;;;32.95;17.88;;;;;;;;;;5033283;28;25073;-70
2023/12/18 12:25:23;;;;;;;29.95;18.42;;;;;;;;;;5028524;28;25079;-71
2023/12/18 12:27:50;;;;;;;38.10;19.08;;;;;;;;;;5029735;28;25072;-70
2023/12/18 12:30:17;;;;;;;32.10;17.63;;;;;;;;;;5032014;28;25073;-70
2023/12/18 12:32:43;;;;;;;30.85;17.30;;;;;;;;;;5034095;28;25057;-69
2023/12/18 12:35:11;;;;;;;30.15;18.83;;;;;;;;;;5029735;28;25077;-70
2023/12/18 12:37:37;;;;;;;28.70;18.30;;;;;;;;;;5025950;28;25081;-69
2023/12/18 12:40:05;;;;;;;34.50;18.27;;;;;;;;;;5034230;28;25055;-70
2023/12/18 12:42:31;;;;;;;33.45;18.33;;;;;;;;;;5035441;28;25057;-70
2023/12/18 12:44:58;;;;;;;39.63;18.33;;;;;;;;;;5036942;28;25072;-70
2023/12/18 12:47:27;;;;;;;31.13;18.58;;;;;;;;;;5032265;28;25078;-71
2023/12/18 12:49:53;;;;;;;30.73;18.85;;;;;;;;;;5029496;28;25049;-72
2023/12/18 12:52:19;;;;;;;34.30;19.77;;;;;;;;;;5029466;28;25107;-71
2023/12/18 12:54:46;;;;;;;35.45;18.83;;;;;;;;;;5034635;28;25086;-70
2023/12/18 12:57:12;;;;;;;27.13;17.98;;;;;;;;;;5032021;28;25059;-71
2023/12/18 12:59:54;;;;;;;31.10;19.40;;;;;;;;;;5024951;28;25088;-71
2023/12/18 13:02:21;;;;;;;35.42;19.85;;;;;;;;;;5032559;28;25058;-70
2023/12/18 13:04:48;;;;;;;31.30;18.55;;;;;;;;;;5031018;28;25084;-71
2023/12/18 13:07:15;;;;;;;28.08;18.63;;;;;;;;;;5031373;28;25160;-70
2023/12/18 13:09:41;;;;;;;28.33;18.65;;;;;;;;;;5032046;28;25071;-69
2023/12/18 13:12:08;;;;;;;25.65;18.63;;;;;;;;;;5033646;28;25085;-71
2023/12/18 13:14:34;;;;;;;26.85;18.48;;;;;;;;;;5033721;28;25133;-71
2023/12/18 13:17:00;;;;;;;31.23;18.13;;;;;;;;;;5034455;28;25089;-72
2023/12/18 13:19:26;;;;;;;31.88;17.67;;;;;;;;;;5037463;28;25068;-71
2023/12/18 13:21:52;;;;;;;36.15;19.30;;;;;;;;;;5024242;28;25089;-72
2023/12/18 13:24:18;;;;;;;28.70;18.83;;;;;;;;;;5024694;28;25052;-69
2023/12/18 13:26:45;;;;;;;39.05;18.55;;;;;;;;;;5030125;28;25058;-72
2023/12/18 13:29:11;;;;;;;30.52;18.75;;;;;;;;;;5025302;28;25113;-71
2023/12/18 13:31:37;;;;;;;32.72;19.00;;;;;;;;;;5031661;28;25066;-70
2023/12/18 13:34:03;;;;;;;31.77;19.02;;;;;;;;;;5034120;28;25072;-71
2023/12/18 13:36:29;;;;;;;30.73;18.45;;;;;;;;;;5033006;28;25074;-70
2023/12/18 13:38:57;;;;;;;32.92;18.15;;;;;;;;;;5031749;28;25086;-71
2023/12/18 13:41:32;;;;;;;31.10;19.60;;;;;;;;;;5032844;28;25069;-70
2023/12/18 13:43:58;;;;;;;30.80;19.02;;;;;;;;;;5033050;28;25054;-70
2023/12/18 13:46:24;;;;;;;31.23;18.00;;;;;;;;;;5028753;28;25063;-72
2023/12/18 13:48:51;;;;;;;30.40;19.25;;;;;;;;;;5031049;28;25509;-68
2023/12/18 13:51:17;;;;;;;24.63;17.23;;;;;;;;;;5032190;28;25066;-71
2023/12/18 13:53:43;;;;;;;32.72;17.52;;;;;;;;;;5026467;28;25060;-69
2023/12/18 13:56:09;;;;;;;27.85;17.30;;;;;;;;;;5031975;28;25153;-70
2023/12/18 13:58:35;;;;;;;30.52;18.08;;;;;;;;;;5024904;28;25133;-71
2023/12/18 14:01:01;;;;;;;27.25;18.42;;;;;;;;;;5033221;28;25061;-71
2023/12/18 14:03:27;;;;;;;35.08;17.70;;;;;;;;;;5033089;28;25133;-70
2023/12/18 14:05:55;;;;;;;29.45;18.48;;;;;;;;;;5031554;28;25079;-70
2023/12/18 14:08:21;;;;;;;33.75;18.80;;;;;;;;;;5035652;28;25065;-70
2023/12/18 14:10:47;;;;;;;31.70;18.65;;;;;;;;;;5031973;28;25094;-71
2023/12/18 14:13:13;;;;;;;30.27;17.98;;;;;;;;;;5029473;28;25054;-70